Cekunda, Russia
Current Conditions -  °F | °C
As of 12:30 AM on Saturday 29 Nov 2014 (Local Time) from UHHH Reporting Station
Clear Clear  
Wind Chill: -4°   Ceiling: Unl
Heat Index: -4°   Visibility: 6mi
Dew Point: -11°   Wind: 2mph
Humidity: 71%   Direction: NA
Pressure: 30.21"   Gusts: NA
Location:  50.87°N, 132.25°E
Report Text: UHHH 281430Z VRB01MPS CAVOK M20/M24 Q1023 NOSIG RMK QFE761/101423090060
Loading
Personal Weather Stations






























Interactive Weather Map New forecast layout! Learn more

10-Day Weather Forecast

Advertisements
Track Severe Weather on mobile